Main page
METAR-TAF:

METAR-TAF

Airports :

Flying Cloud Airport

Minneapolis / Eden Prairie, Minnesota, United States

latitude: 44-49-56N, longitude: 093-28-13W, elevation: 941 ft

Current weather observation

The report was made 39 minutes ago, at 06:53 UTC
Wind 3 mph from the West/Southwest
Temperature 36°F
Humidity 55%
Pressure 30.18 in. Hg
Visibility: 10 miles
Clear sky

METAR: KFCM 210653Z AUTO 24003KT 10SM CLR 02/M06 A3018 RMK AO2 SLP226 T00171056

Time: 02:32 (07:32 UTC)


TAF: missing

Weather observations and forecasts of more than 4000 airports (METAR and TAF reports).

The available stations are represented by yellow and red dots on the map.

Hover mouse over dot to see the name of the station.

Then click to see weather observations and forecasts.

To change the map : click on the green buttons with a black cross to zoom in, on the green button with a dash to zoom out, or on the green arrows for adjacent maps.


METAR-TAF: